sensor_id;sensor_type;location;lat;lon;timestamp;P1;durP1;ratioP1;P2;durP2;ratioP2
32393;SDS011;18853;45.426;9.206;2022-10-16T00:01:41;117.47;;;72.30;;
32393;SDS011;18853;45.426;9.206;2022-10-16T00:04:08;108.00;;;71.88;;
32393;SDS011;18853;45.426;9.206;2022-10-16T00:06:34;113.53;;;73.57;;
32393;SDS011;18853;45.426;9.206;2022-10-16T00:08:59;111.60;;;72.03;;
32393;SDS011;18853;45.426;9.206;2022-10-16T00:11:29;103.50;;;70.03;;
32393;SDS011;18853;45.426;9.206;2022-10-16T00:14:02;108.60;;;70.47;;
32393;SDS011;18853;45.426;9.206;2022-10-16T00:16:29;111.82;;;72.10;;
32393;SDS011;18853;45.426;9.206;2022-10-16T00:18:55;107.70;;;70.47;;
32393;SDS011;18853;45.426;9.206;2022-10-16T00:21:22;103.63;;;68.18;;
32393;SDS011;18853;45.426;9.206;2022-10-16T00:23:53;103.53;;;67.60;;
32393;SDS011;18853;45.426;9.206;2022-10-16T00:26:20;103.85;;;69.13;;
32393;SDS011;18853;45.426;9.206;2022-10-16T00:28:47;102.50;;;67.45;;
32393;SDS011;18853;45.426;9.206;2022-10-16T00:31:14;101.63;;;67.47;;
32393;SDS011;18853;45.426;9.206;2022-10-16T00:33:40;99.25;;;65.93;;
32393;SDS011;18853;45.426;9.206;2022-10-16T00:36:07;104.07;;;66.03;;
32393;SDS011;18853;45.426;9.206;2022-10-16T00:38:35;98.88;;;65.97;;
32393;SDS011;18853;45.426;9.206;2022-10-16T00:41:02;99.95;;;67.10;;
32393;SDS011;18853;45.426;9.206;2022-10-16T00:46:03;100.25;;;65.18;;
32393;SDS011;18853;45.426;9.206;2022-10-16T00:51:01;103.60;;;66.18;;
32393;SDS011;18853;45.426;9.206;2022-10-16T00:53:26;103.57;;;65.85;;
32393;SDS011;18853;45.426;9.206;2022-10-16T00:55:53;100.25;;;64.90;;
32393;SDS011;18853;45.426;9.206;2022-10-16T00:58:19;97.95;;;65.18;;
32393;SDS011;18853;45.426;9.206;2022-10-16T01:00:45;96.47;;;63.50;;
32393;SDS011;18853;45.426;9.206;2022-10-16T01:03:25;94.03;;;62.15;;
32393;SDS011;18853;45.426;9.206;2022-10-16T01:05:57;96.78;;;63.58;;
32393;SDS011;18853;45.426;9.206;2022-10-16T01:11:19;92.75;;;60.17;;
32393;SDS011;18853;45.426;9.206;2022-10-16T01:13:56;89.25;;;58.95;;
32393;SDS011;18853;45.426;9.206;2022-10-16T01:19:09;88.40;;;60.17;;
32393;SDS011;18853;45.426;9.206;2022-10-16T01:21:43;88.35;;;56.75;;
32393;SDS011;18853;45.426;9.206;2022-10-16T01:31:56;80.82;;;56.03;;
32393;SDS011;18853;45.426;9.206;2022-10-16T01:34:33;87.07;;;57.67;;
32393;SDS011;18853;45.426;9.206;2022-10-16T01:37:12;84.45;;;56.53;;
32393;SDS011;18853;45.426;9.206;2022-10-16T01:39:41;85.60;;;55.97;;
32393;SDS011;18853;45.426;9.206;2022-10-16T01:42:52;79.00;;;53.22;;
32393;SDS011;18853;45.426;9.206;2022-10-16T01:45:01;81.13;;;54.05;;
32393;SDS011;18853;45.426;9.206;2022-10-16T01:47:31;81.00;;;54.72;;
32393;SDS011;18853;45.426;9.206;2022-10-16T01:49:58;76.57;;;53.20;;
32393;SDS011;18853;45.426;9.206;2022-10-16T01:52:26;77.63;;;54.42;;
32393;SDS011;18853;45.426;9.206;2022-10-16T01:54:55;77.60;;;53.65;;
32393;SDS011;18853;45.426;9.206;2022-10-16T01:57:23;76.90;;;53.85;;
32393;SDS011;18853;45.426;9.206;2022-10-16T01:59:52;78.22;;;53.28;;
32393;SDS011;18853;45.426;9.206;2022-10-16T02:02:21;75.45;;;52.97;;
32393;SDS011;18853;45.426;9.206;2022-10-16T02:07:41;77.40;;;53.42;;
32393;SDS011;18853;45.426;9.206;2022-10-16T02:10:07;79.78;;;53.47;;
32393;SDS011;18853;45.426;9.206;2022-10-16T02:12:35;84.45;;;53.70;;
32393;SDS011;18853;45.426;9.206;2022-10-16T02:15:04;78.32;;;53.58;;
32393;SDS011;18853;45.426;9.206;2022-10-16T02:17:31;76.75;;;53.80;;
32393;SDS011;18853;45.426;9.206;2022-10-16T02:19:57;77.15;;;53.55;;
32393;SDS011;18853;45.426;9.206;2022-10-16T02:24:57;77.45;;;53.22;;
32393;SDS011;18853;45.426;9.206;2022-10-16T02:30:14;74.75;;;54.05;;
32393;SDS011;18853;45.426;9.206;2022-10-16T02:32:42;90.35;;;56.13;;
32393;SDS011;18853;45.426;9.206;2022-10-16T02:35:10;74.45;;;53.22;;
32393;SDS011;18853;45.426;9.206;2022-10-16T02:37:36;78.45;;;54.15;;
32393;SDS011;18853;45.426;9.206;2022-10-16T02:40:05;79.05;;;55.22;;
32393;SDS011;18853;45.426;9.206;2022-10-16T02:42:33;75.53;;;53.85;;
32393;SDS011;18853;45.426;9.206;2022-10-16T02:45:01;79.22;;;53.60;;
32393;SDS011;18853;45.426;9.206;2022-10-16T02:47:27;78.03;;;54.17;;
32393;SDS011;18853;45.426;9.206;2022-10-16T02:49:53;75.88;;;52.10;;
32393;SDS011;18853;45.426;9.206;2022-10-16T02:52:18;80.22;;;53.53;;
32393;SDS011;18853;45.426;9.206;2022-10-16T02:54:44;81.78;;;54.50;;
32393;SDS011;18853;45.426;9.206;2022-10-16T02:57:09;78.47;;;54.58;;
32393;SDS011;18853;45.426;9.206;2022-10-16T02:59:35;78.80;;;53.75;;
32393;SDS011;18853;45.426;9.206;2022-10-16T03:02:01;77.63;;;52.78;;
32393;SDS011;18853;45.426;9.206;2022-10-16T03:04:26;75.93;;;54.03;;
32393;SDS011;18853;45.426;9.206;2022-10-16T03:09:27;78.97;;;54.10;;
32393;SDS011;18853;45.426;9.206;2022-10-16T03:11:52;77.68;;;53.92;;
32393;SDS011;18853;45.426;9.206;2022-10-16T03:14:18;80.40;;;54.22;;
32393;SDS011;18853;45.426;9.206;2022-10-16T03:16:44;75.88;;;52.15;;
32393;SDS011;18853;45.426;9.206;2022-10-16T03:19:09;80.95;;;52.20;;
32393;SDS011;18853;45.426;9.206;2022-10-16T03:21:35;81.80;;;55.10;;
32393;SDS011;18853;45.426;9.206;2022-10-16T03:24:00;80.07;;;52.42;;
32393;SDS011;18853;45.426;9.206;2022-10-16T03:26:26;74.75;;;52.25;;
32393;SDS011;18853;45.426;9.206;2022-10-16T03:28:52;83.30;;;53.53;;
32393;SDS011;18853;45.426;9.206;2022-10-16T03:31:17;78.50;;;51.80;;
32393;SDS011;18853;45.426;9.206;2022-10-16T03:33:43;73.00;;;51.10;;
32393;SDS011;18853;45.426;9.206;2022-10-16T03:36:08;74.38;;;50.88;;
32393;SDS011;18853;45.426;9.206;2022-10-16T03:38:34;73.13;;;51.42;;
32393;SDS011;18853;45.426;9.206;2022-10-16T03:41:00;72.40;;;49.70;;
32393;SDS011;18853;45.426;9.206;2022-10-16T03:43:26;77.90;;;51.72;;
32393;SDS011;18853;45.426;9.206;2022-10-16T03:45:51;72.35;;;50.13;;
32393;SDS011;18853;45.426;9.206;2022-10-16T03:48:17;73.53;;;49.67;;
32393;SDS011;18853;45.426;9.206;2022-10-16T03:50:43;75.00;;;50.30;;
32393;SDS011;18853;45.426;9.206;2022-10-16T03:53:09;68.97;;;49.60;;
32393;SDS011;18853;45.426;9.206;2022-10-16T03:55:35;70.35;;;49.63;;
32393;SDS011;18853;45.426;9.206;2022-10-16T03:58:01;68.00;;;48.35;;
32393;SDS011;18853;45.426;9.206;2022-10-16T04:00:26;69.78;;;49.42;;
32393;SDS011;18853;45.426;9.206;2022-10-16T04:02:53;70.85;;;49.00;;
32393;SDS011;18853;45.426;9.206;2022-10-16T04:05:19;70.63;;;49.42;;
32393;SDS011;18853;45.426;9.206;2022-10-16T04:07:45;72.75;;;48.78;;
32393;SDS011;18853;45.426;9.206;2022-10-16T04:10:10;68.03;;;47.72;;
32393;SDS011;18853;45.426;9.206;2022-10-16T04:12:36;70.88;;;49.47;;
32393;SDS011;18853;45.426;9.206;2022-10-16T04:15:02;72.57;;;50.13;;
32393;SDS011;18853;45.426;9.206;2022-10-16T04:17:27;71.57;;;48.90;;
32393;SDS011;18853;45.426;9.206;2022-10-16T04:19:53;72.72;;;48.72;;
32393;SDS011;18853;45.426;9.206;2022-10-16T04:22:19;73.18;;;49.85;;
32393;SDS011;18853;45.426;9.206;2022-10-16T04:24:44;71.47;;;48.13;;
32393;SDS011;18853;45.426;9.206;2022-10-16T04:27:10;71.57;;;48.92;;
32393;SDS011;18853;45.426;9.206;2022-10-16T04:29:35;70.60;;;48.35;;
32393;SDS011;18853;45.426;9.206;2022-10-16T04:32:01;68.88;;;47.38;;
32393;SDS011;18853;45.426;9.206;2022-10-16T04:34:27;67.60;;;48.17;;
32393;SDS011;18853;45.426;9.206;2022-10-16T04:36:55;69.55;;;49.55;;
32393;SDS011;18853;45.426;9.206;2022-10-16T04:39:21;76.03;;;48.80;;
32393;SDS011;18853;45.426;9.206;2022-10-16T04:41:47;69.63;;;47.60;;
32393;SDS011;18853;45.426;9.206;2022-10-16T04:44:12;70.10;;;47.45;;
32393;SDS011;18853;45.426;9.206;2022-10-16T04:46:38;67.88;;;46.60;;
32393;SDS011;18853;45.426;9.206;2022-10-16T04:49:04;65.25;;;46.25;;
32393;SDS011;18853;45.426;9.206;2022-10-16T04:51:30;65.55;;;46.33;;
32393;SDS011;18853;45.426;9.206;2022-10-16T04:53:56;67.20;;;45.88;;
32393;SDS011;18853;45.426;9.206;2022-10-16T04:56:22;68.35;;;47.55;;
32393;SDS011;18853;45.426;9.206;2022-10-16T04:58:48;70.38;;;46.78;;
32393;SDS011;18853;45.426;9.206;2022-10-16T05:01:13;68.78;;;47.40;;
32393;SDS011;18853;45.426;9.206;2022-10-16T05:03:39;66.90;;;46.53;;
32393;SDS011;18853;45.426;9.206;2022-10-16T05:06:07;67.80;;;46.67;;
32393;SDS011;18853;45.426;9.206;2022-10-16T05:08:33;67.47;;;45.95;;
32393;SDS011;18853;45.426;9.206;2022-10-16T05:10:59;69.60;;;46.67;;
32393;SDS011;18853;45.426;9.206;2022-10-16T05:13:25;64.88;;;45.13;;
32393;SDS011;18853;45.426;9.206;2022-10-16T05:15:50;61.97;;;45.45;;
32393;SDS011;18853;45.426;9.206;2022-10-16T05:18:16;63.08;;;46.17;;
32393;SDS011;18853;45.426;9.206;2022-10-16T05:20:42;62.92;;;45.75;;
32393;SDS011;18853;45.426;9.206;2022-10-16T05:23:08;64.75;;;46.05;;
32393;SDS011;18853;45.426;9.206;2022-10-16T05:25:35;64.43;;;45.25;;
32393;SDS011;18853;45.426;9.206;2022-10-16T05:28:01;62.63;;;43.75;;
32393;SDS011;18853;45.426;9.206;2022-10-16T05:30:27;62.20;;;44.30;;
32393;SDS011;18853;45.426;9.206;2022-10-16T05:32:52;60.35;;;43.28;;
32393;SDS011;18853;45.426;9.206;2022-10-16T05:35:18;63.50;;;45.25;;
32393;SDS011;18853;45.426;9.206;2022-10-16T05:37:44;62.78;;;45.72;;
32393;SDS011;18853;45.426;9.206;2022-10-16T05:40:10;63.05;;;44.50;;
32393;SDS011;18853;45.426;9.206;2022-10-16T05:42:38;66.00;;;44.08;;
32393;SDS011;18853;45.426;9.206;2022-10-16T05:45:04;61.65;;;44.88;;
32393;SDS011;18853;45.426;9.206;2022-10-16T05:47:31;62.47;;;44.78;;
32393;SDS011;18853;45.426;9.206;2022-10-16T05:49:57;61.22;;;44.28;;
32393;SDS011;18853;45.426;9.206;2022-10-16T05:52:22;60.72;;;44.22;;
32393;SDS011;18853;45.426;9.206;2022-10-16T05:54:48;63.25;;;43.67;;
32393;SDS011;18853;45.426;9.206;2022-10-16T05:57:14;62.30;;;44.05;;
32393;SDS011;18853;45.426;9.206;2022-10-16T05:59:40;61.92;;;44.35;;
32393;SDS011;18853;45.426;9.206;2022-10-16T06:02:05;59.10;;;43.30;;
32393;SDS011;18853;45.426;9.206;2022-10-16T06:04:33;59.67;;;43.53;;
32393;SDS011;18853;45.426;9.206;2022-10-16T06:06:59;58.78;;;42.67;;
32393;SDS011;18853;45.426;9.206;2022-10-16T06:09:27;58.55;;;43.45;;
32393;SDS011;18853;45.426;9.206;2022-10-16T06:11:53;58.50;;;42.38;;
32393;SDS011;18853;45.426;9.206;2022-10-16T06:14:19;60.00;;;42.40;;
32393;SDS011;18853;45.426;9.206;2022-10-16T06:16:44;56.95;;;41.45;;
32393;SDS011;18853;45.426;9.206;2022-10-16T06:19:10;60.72;;;43.00;;
32393;SDS011;18853;45.426;9.206;2022-10-16T06:21:36;61.40;;;43.17;;
32393;SDS011;18853;45.426;9.206;2022-10-16T06:24:01;55.53;;;41.17;;
32393;SDS011;18853;45.426;9.206;2022-10-16T06:26:28;60.63;;;42.40;;
32393;SDS011;18853;45.426;9.206;2022-10-16T06:28:55;59.13;;;41.90;;
32393;SDS011;18853;45.426;9.206;2022-10-16T06:31:22;53.60;;;40.22;;
32393;SDS011;18853;45.426;9.206;2022-10-16T06:33:52;55.15;;;40.38;;
32393;SDS011;18853;45.426;9.206;2022-10-16T06:36:18;54.08;;;40.17;;
32393;SDS011;18853;45.426;9.206;2022-10-16T06:38:45;54.00;;;39.40;;
32393;SDS011;18853;45.426;9.206;2022-10-16T06:41:12;55.92;;;40.75;;
32393;SDS011;18853;45.426;9.206;2022-10-16T06:43:39;57.00;;;39.00;;
32393;SDS011;18853;45.426;9.206;2022-10-16T06:46:05;51.03;;;39.20;;
32393;SDS011;18853;45.426;9.206;2022-10-16T06:48:35;59.00;;;40.10;;
32393;SDS011;18853;45.426;9.206;2022-10-16T06:51:11;55.17;;;40.17;;
32393;SDS011;18853;45.426;9.206;2022-10-16T06:53:39;57.42;;;39.72;;
32393;SDS011;18853;45.426;9.206;2022-10-16T06:56:10;55.72;;;40.25;;
32393;SDS011;18853;45.426;9.206;2022-10-16T06:58:37;53.95;;;40.05;;
32393;SDS011;18853;45.426;9.206;2022-10-16T07:01:03;58.47;;;39.63;;
32393;SDS011;18853;45.426;9.206;2022-10-16T07:03:30;55.17;;;39.25;;
32393;SDS011;18853;45.426;9.206;2022-10-16T07:05:56;50.88;;;38.20;;
32393;SDS011;18853;45.426;9.206;2022-10-16T07:08:21;52.22;;;38.50;;
32393;SDS011;18853;45.426;9.206;2022-10-16T07:10:47;59.50;;;38.90;;
32393;SDS011;18853;45.426;9.206;2022-10-16T07:13:13;54.70;;;40.22;;
32393;SDS011;18853;45.426;9.206;2022-10-16T07:15:39;48.95;;;37.78;;
32393;SDS011;18853;45.426;9.206;2022-10-16T07:18:06;51.80;;;37.95;;
32393;SDS011;18853;45.426;9.206;2022-10-16T07:20:32;54.10;;;39.05;;
32393;SDS011;18853;45.426;9.206;2022-10-16T07:22:58;53.10;;;38.50;;
32393;SDS011;18853;45.426;9.206;2022-10-16T07:25:24;52.03;;;37.40;;
32393;SDS011;18853;45.426;9.206;2022-10-16T07:27:49;50.97;;;37.28;;
32393;SDS011;18853;45.426;9.206;2022-10-16T07:30:15;50.08;;;37.20;;
32393;SDS011;18853;45.426;9.206;2022-10-16T07:32:41;50.92;;;36.83;;
32393;SDS011;18853;45.426;9.206;2022-10-16T07:35:06;48.55;;;36.40;;
32393;SDS011;18853;45.426;9.206;2022-10-16T07:37:32;49.97;;;36.63;;
32393;SDS011;18853;45.426;9.206;2022-10-16T07:39:58;50.50;;;37.60;;
32393;SDS011;18853;45.426;9.206;2022-10-16T07:42:23;51.53;;;37.42;;
32393;SDS011;18853;45.426;9.206;2022-10-16T07:44:49;50.60;;;37.25;;
32393;SDS011;18853;45.426;9.206;2022-10-16T07:47:15;53.92;;;38.05;;
32393;SDS011;18853;45.426;9.206;2022-10-16T07:49:40;49.38;;;35.92;;
32393;SDS011;18853;45.426;9.206;2022-10-16T07:52:06;48.97;;;36.45;;
32393;SDS011;18853;45.426;9.206;2022-10-16T07:54:32;52.22;;;36.60;;
32393;SDS011;18853;45.426;9.206;2022-10-16T07:56:57;78.60;;;50.58;;
32393;SDS011;18853;45.426;9.206;2022-10-16T07:59:23;56.33;;;39.17;;
32393;SDS011;18853;45.426;9.206;2022-10-16T08:01:49;69.40;;;48.50;;
32393;SDS011;18853;45.426;9.206;2022-10-16T08:04:15;77.63;;;52.03;;
32393;SDS011;18853;45.426;9.206;2022-10-16T08:06:40;57.85;;;41.75;;
32393;SDS011;18853;45.426;9.206;2022-10-16T08:09:06;60.58;;;40.75;;
32393;SDS011;18853;45.426;9.206;2022-10-16T08:11:33;57.15;;;41.38;;
32393;SDS011;18853;45.426;9.206;2022-10-16T08:13:58;59.83;;;41.00;;
32393;SDS011;18853;45.426;9.206;2022-10-16T08:16:24;61.67;;;43.15;;
32393;SDS011;18853;45.426;9.206;2022-10-16T08:18:50;61.72;;;43.40;;
32393;SDS011;18853;45.426;9.206;2022-10-16T08:21:17;67.03;;;46.35;;
32393;SDS011;18853;45.426;9.206;2022-10-16T08:23:44;67.03;;;45.25;;
32393;SDS011;18853;45.426;9.206;2022-10-16T08:26:10;68.47;;;45.28;;
32393;SDS011;18853;45.426;9.206;2022-10-16T08:28:36;72.53;;;47.30;;
32393;SDS011;18853;45.426;9.206;2022-10-16T08:33:38;72.25;;;48.15;;
32393;SDS011;18853;45.426;9.206;2022-10-16T08:36:05;70.97;;;47.50;;
32393;SDS011;18853;45.426;9.206;2022-10-16T08:38:32;69.70;;;47.28;;
32393;SDS011;18853;45.426;9.206;2022-10-16T08:49:11;72.80;;;47.80;;
32393;SDS011;18853;45.426;9.206;2022-10-16T08:51:41;70.93;;;47.53;;
32393;SDS011;18853;45.426;9.206;2022-10-16T08:56:46;75.72;;;50.95;;
32393;SDS011;18853;45.426;9.206;2022-10-16T08:59:11;75.38;;;49.55;;
32393;SDS011;18853;45.426;9.206;2022-10-16T09:01:42;73.03;;;49.50;;
32393;SDS011;18853;45.426;9.206;2022-10-16T09:06:55;73.75;;;50.65;;
32393;SDS011;18853;45.426;9.206;2022-10-16T09:12:04;79.00;;;51.08;;
32393;SDS011;18853;45.426;9.206;2022-10-16T09:23:18;74.28;;;52.63;;
32393;SDS011;18853;45.426;9.206;2022-10-16T09:25:52;80.18;;;51.53;;
32393;SDS011;18853;45.426;9.206;2022-10-16T09:28:19;77.28;;;51.05;;
32393;SDS011;18853;45.426;9.206;2022-10-16T09:30:45;75.20;;;52.05;;
32393;SDS011;18853;45.426;9.206;2022-10-16T09:33:13;77.07;;;50.35;;
32393;SDS011;18853;45.426;9.206;2022-10-16T09:35:44;72.45;;;49.38;;
32393;SDS011;18853;45.426;9.206;2022-10-16T09:43:41;81.97;;;54.83;;
32393;SDS011;18853;45.426;9.206;2022-10-16T09:46:26;86.88;;;55.90;;
32393;SDS011;18853;45.426;9.206;2022-10-16T09:49:03;86.57;;;55.60;;
32393;SDS011;18853;45.426;9.206;2022-10-16T09:51:43;88.00;;;54.67;;
32393;SDS011;18853;45.426;9.206;2022-10-16T09:56:39;81.82;;;53.40;;
32393;SDS011;18853;45.426;9.206;2022-10-16T09:59:10;76.72;;;50.63;;
32393;SDS011;18853;45.426;9.206;2022-10-16T10:01:38;74.65;;;50.97;;
32393;SDS011;18853;45.426;9.206;2022-10-16T10:04:36;84.90;;;55.80;;
32393;SDS011;18853;45.426;9.206;2022-10-16T10:07:05;78.00;;;51.70;;
32393;SDS011;18853;45.426;9.206;2022-10-16T10:09:43;84.85;;;54.58;;
32393;SDS011;18853;45.426;9.206;2022-10-16T10:12:20;85.13;;;52.92;;
32393;SDS011;18853;45.426;9.206;2022-10-16T10:14:53;79.50;;;52.78;;
32393;SDS011;18853;45.426;9.206;2022-10-16T10:17:25;86.07;;;54.63;;
32393;SDS011;18853;45.426;9.206;2022-10-16T10:19:53;86.25;;;55.78;;
32393;SDS011;18853;45.426;9.206;2022-10-16T10:25:15;81.53;;;53.50;;
32393;SDS011;18853;45.426;9.206;2022-10-16T10:30:23;89.03;;;56.85;;
32393;SDS011;18853;45.426;9.206;2022-10-16T10:36:05;92.07;;;58.17;;
32393;SDS011;18853;45.426;9.206;2022-10-16T10:44:03;86.30;;;55.50;;
32393;SDS011;18853;45.426;9.206;2022-10-16T10:49:08;90.15;;;57.50;;
32393;SDS011;18853;45.426;9.206;2022-10-16T10:52:07;83.20;;;56.20;;
32393;SDS011;18853;45.426;9.206;2022-10-16T10:57:35;94.22;;;57.72;;
32393;SDS011;18853;45.426;9.206;2022-10-16T11:05:42;87.90;;;56.58;;
32393;SDS011;18853;45.426;9.206;2022-10-16T11:08:19;81.68;;;54.55;;
32393;SDS011;18853;45.426;9.206;2022-10-16T11:10:54;83.53;;;56.30;;
32393;SDS011;18853;45.426;9.206;2022-10-16T11:16:00;98.18;;;62.03;;
32393;SDS011;18853;45.426;9.206;2022-10-16T11:18:39;104.60;;;64.50;;
32393;SDS011;18853;45.426;9.206;2022-10-16T11:21:13;100.60;;;63.72;;
32393;SDS011;18853;45.426;9.206;2022-10-16T11:23:50;94.63;;;60.63;;
32393;SDS011;18853;45.426;9.206;2022-10-16T11:26:34;94.20;;;61.78;;
32393;SDS011;18853;45.426;9.206;2022-10-16T11:29:04;98.38;;;63.15;;
32393;SDS011;18853;45.426;9.206;2022-10-16T11:34:21;96.88;;;61.50;;
32393;SDS011;18853;45.426;9.206;2022-10-16T11:39:27;98.88;;;63.70;;
32393;SDS011;18853;45.426;9.206;2022-10-16T11:44:53;95.60;;;64.63;;
32393;SDS011;18853;45.426;9.206;2022-10-16T11:47:31;87.35;;;56.78;;
32393;SDS011;18853;45.426;9.206;2022-10-16T11:55:39;93.28;;;62.03;;
32393;SDS011;18853;45.426;9.206;2022-10-16T11:58:08;93.00;;;60.47;;
32393;SDS011;18853;45.426;9.206;2022-10-16T12:08:50;91.72;;;62.67;;
32393;SDS011;18853;45.426;9.206;2022-10-16T12:11:34;95.70;;;62.58;;
32393;SDS011;18853;45.426;9.206;2022-10-16T12:19:26;84.25;;;56.60;;
32393;SDS011;18853;45.426;9.206;2022-10-16T12:21:55;89.00;;;57.67;;
32393;SDS011;18853;45.426;9.206;2022-10-16T12:27:24;86.77;;;59.07;;
32393;SDS011;18853;45.426;9.206;2022-10-16T12:30:03;93.97;;;60.60;;
32393;SDS011;18853;45.426;9.206;2022-10-16T12:32:34;87.90;;;59.60;;
32393;SDS011;18853;45.426;9.206;2022-10-16T12:35:03;89.00;;;59.20;;
32393;SDS011;18853;45.426;9.206;2022-10-16T12:37:35;92.70;;;59.45;;
32393;SDS011;18853;45.426;9.206;2022-10-16T12:43:25;90.90;;;60.42;;
32393;SDS011;18853;45.426;9.206;2022-10-16T12:46:03;95.18;;;62.40;;
32393;SDS011;18853;45.426;9.206;2022-10-16T12:48:30;90.10;;;59.33;;
32393;SDS011;18853;45.426;9.206;2022-10-16T12:50:55;84.90;;;58.05;;
32393;SDS011;18853;45.426;9.206;2022-10-16T12:53:25;89.90;;;59.97;;
32393;SDS011;18853;45.426;9.206;2022-10-16T12:56:01;84.72;;;57.08;;
32393;SDS011;18853;45.426;9.206;2022-10-16T13:01:25;90.55;;;58.17;;
32393;SDS011;18853;45.426;9.206;2022-10-16T13:04:20;83.03;;;56.63;;
32393;SDS011;18853;45.426;9.206;2022-10-16T13:10:02;81.97;;;56.30;;
32393;SDS011;18853;45.426;9.206;2022-10-16T13:15:49;79.45;;;52.88;;
32393;SDS011;18853;45.426;9.206;2022-10-16T13:29:32;65.97;;;48.13;;
32393;SDS011;18853;45.426;9.206;2022-10-16T13:31:59;83.55;;;55.30;;
32393;SDS011;18853;45.426;9.206;2022-10-16T13:34:32;70.03;;;50.08;;
32393;SDS011;18853;45.426;9.206;2022-10-16T13:36:57;68.10;;;46.88;;
32393;SDS011;18853;45.426;9.206;2022-10-16T13:39:32;67.35;;;47.65;;
32393;SDS011;18853;45.426;9.206;2022-10-16T13:42:43;67.30;;;48.13;;
32393;SDS011;18853;45.426;9.206;2022-10-16T13:44:47;80.00;;;54.50;;
32393;SDS011;18853;45.426;9.206;2022-10-16T13:47:19;59.58;;;43.83;;
32393;SDS011;18853;45.426;9.206;2022-10-16T13:49:45;74.28;;;50.53;;
32393;SDS011;18853;45.426;9.206;2022-10-16T13:52:20;71.47;;;50.28;;
32393;SDS011;18853;45.426;9.206;2022-10-16T13:54:47;72.65;;;51.05;;
32393;SDS011;18853;45.426;9.206;2022-10-16T13:57:13;68.40;;;48.50;;
32393;SDS011;18853;45.426;9.206;2022-10-16T13:59:40;69.00;;;48.78;;
32393;SDS011;18853;45.426;9.206;2022-10-16T14:04:51;75.70;;;50.37;;
32393;SDS011;18853;45.426;9.206;2022-10-16T14:07:29;69.45;;;49.35;;
32393;SDS011;18853;45.426;9.206;2022-10-16T14:09:58;69.85;;;50.67;;
32393;SDS011;18853;45.426;9.206;2022-10-16T14:12:31;65.38;;;47.40;;
32393;SDS011;18853;45.426;9.206;2022-10-16T14:14:58;74.85;;;51.40;;
32393;SDS011;18853;45.426;9.206;2022-10-16T14:17:28;65.88;;;45.75;;
32393;SDS011;18853;45.426;9.206;2022-10-16T14:20:00;74.40;;;51.95;;
32393;SDS011;18853;45.426;9.206;2022-10-16T14:22:40;71.38;;;50.58;;
32393;SDS011;18853;45.426;9.206;2022-10-16T14:27:44;73.05;;;49.08;;
32393;SDS011;18853;45.426;9.206;2022-10-16T14:30:17;72.13;;;48.35;;
32393;SDS011;18853;45.426;9.206;2022-10-16T14:36:03;66.50;;;46.33;;
32393;SDS011;18853;45.426;9.206;2022-10-16T14:38:30;67.30;;;47.10;;
32393;SDS011;18853;45.426;9.206;2022-10-16T14:40:57;73.95;;;49.53;;
32393;SDS011;18853;45.426;9.206;2022-10-16T14:43:36;70.50;;;50.25;;
32393;SDS011;18853;45.426;9.206;2022-10-16T14:46:11;69.80;;;47.05;;
32393;SDS011;18853;45.426;9.206;2022-10-16T14:48:42;72.07;;;50.40;;
32393;SDS011;18853;45.426;9.206;2022-10-16T14:51:14;75.43;;;51.55;;
32393;SDS011;18853;45.426;9.206;2022-10-16T14:53:44;71.68;;;50.45;;
32393;SDS011;18853;45.426;9.206;2022-10-16T14:56:15;67.28;;;47.08;;
32393;SDS011;18853;45.426;9.206;2022-10-16T14:58:47;62.40;;;44.78;;
32393;SDS011;18853;45.426;9.206;2022-10-16T15:01:14;64.40;;;45.92;;
32393;SDS011;18853;45.426;9.206;2022-10-16T15:03:40;69.75;;;47.97;;
32393;SDS011;18853;45.426;9.206;2022-10-16T15:06:12;57.25;;;41.40;;
32393;SDS011;18853;45.426;9.206;2022-10-16T15:08:40;57.20;;;39.70;;
32393;SDS011;18853;45.426;9.206;2022-10-16T15:11:13;65.47;;;47.33;;
32393;SDS011;18853;45.426;9.206;2022-10-16T15:13:40;60.28;;;43.53;;
32393;SDS011;18853;45.426;9.206;2022-10-16T15:16:16;68.03;;;50.17;;
32393;SDS011;18853;45.426;9.206;2022-10-16T15:18:42;62.40;;;42.88;;
32393;SDS011;18853;45.426;9.206;2022-10-16T15:21:08;63.38;;;45.95;;
32393;SDS011;18853;45.426;9.206;2022-10-16T15:23:48;56.38;;;40.47;;
32393;SDS011;18853;45.426;9.206;2022-10-16T15:26:14;56.28;;;41.50;;
32393;SDS011;18853;45.426;9.206;2022-10-16T15:28:40;61.85;;;43.63;;
32393;SDS011;18853;45.426;9.206;2022-10-16T15:31:06;62.05;;;44.03;;
32393;SDS011;18853;45.426;9.206;2022-10-16T15:33:31;67.22;;;47.15;;
32393;SDS011;18853;45.426;9.206;2022-10-16T15:35:59;61.15;;;44.45;;
32393;SDS011;18853;45.426;9.206;2022-10-16T15:38:26;58.90;;;41.88;;
32393;SDS011;18853;45.426;9.206;2022-10-16T15:40:53;55.20;;;41.20;;
32393;SDS011;18853;45.426;9.206;2022-10-16T15:43:19;58.58;;;41.55;;
32393;SDS011;18853;45.426;9.206;2022-10-16T15:48:28;57.42;;;40.30;;
32393;SDS011;18853;45.426;9.206;2022-10-16T15:50:54;57.83;;;41.47;;
32393;SDS011;18853;45.426;9.206;2022-10-16T15:53:20;59.67;;;42.53;;
32393;SDS011;18853;45.426;9.206;2022-10-16T15:55:46;57.67;;;40.65;;
32393;SDS011;18853;45.426;9.206;2022-10-16T15:58:11;60.10;;;42.30;;
32393;SDS011;18853;45.426;9.206;2022-10-16T16:00:37;58.67;;;42.13;;
32393;SDS011;18853;45.426;9.206;2022-10-16T16:03:03;57.47;;;42.75;;
32393;SDS011;18853;45.426;9.206;2022-10-16T16:05:29;57.33;;;42.42;;
32393;SDS011;18853;45.426;9.206;2022-10-16T16:07:55;60.38;;;43.47;;
32393;SDS011;18853;45.426;9.206;2022-10-16T16:10:21;58.33;;;43.22;;
32393;SDS011;18853;45.426;9.206;2022-10-16T16:12:47;59.75;;;43.42;;
32393;SDS011;18853;45.426;9.206;2022-10-16T16:15:18;59.72;;;43.28;;
32393;SDS011;18853;45.426;9.206;2022-10-16T16:17:45;63.22;;;43.55;;
32393;SDS011;18853;45.426;9.206;2022-10-16T16:20:12;58.45;;;42.85;;
32393;SDS011;18853;45.426;9.206;2022-10-16T16:22:37;57.78;;;42.83;;
32393;SDS011;18853;45.426;9.206;2022-10-16T16:25:03;66.60;;;45.47;;
32393;SDS011;18853;45.426;9.206;2022-10-16T16:27:29;63.22;;;42.85;;
32393;SDS011;18853;45.426;9.206;2022-10-16T16:29:58;58.67;;;42.78;;
32393;SDS011;18853;45.426;9.206;2022-10-16T16:32:24;62.70;;;45.08;;
32393;SDS011;18853;45.426;9.206;2022-10-16T16:34:50;62.75;;;44.78;;
32393;SDS011;18853;45.426;9.206;2022-10-16T16:37:15;61.95;;;43.92;;
32393;SDS011;18853;45.426;9.206;2022-10-16T16:39:41;70.07;;;46.20;;
32393;SDS011;18853;45.426;9.206;2022-10-16T16:42:07;64.30;;;45.15;;
32393;SDS011;18853;45.426;9.206;2022-10-16T16:44:33;66.40;;;45.80;;
32393;SDS011;18853;45.426;9.206;2022-10-16T16:47:01;63.35;;;44.20;;
32393;SDS011;18853;45.426;9.206;2022-10-16T16:49:27;64.00;;;44.10;;
32393;SDS011;18853;45.426;9.206;2022-10-16T16:51:53;68.85;;;46.90;;
32393;SDS011;18853;45.426;9.206;2022-10-16T16:54:19;63.40;;;44.72;;
32393;SDS011;18853;45.426;9.206;2022-10-16T16:56:45;67.88;;;48.75;;
32393;SDS011;18853;45.426;9.206;2022-10-16T16:59:12;66.40;;;45.38;;
32393;SDS011;18853;45.426;9.206;2022-10-16T17:01:39;63.53;;;44.75;;
32393;SDS011;18853;45.426;9.206;2022-10-16T17:04:06;66.03;;;46.20;;
32393;SDS011;18853;45.426;9.206;2022-10-16T17:06:32;70.50;;;46.45;;